Time;durP1;ratioP1;P1;durP2;ratioP2;P2;SDS_P1;SDS_P2;PMS_P1;PMS_P2;Temp;Humidity;BMP_temperature;BMP_pressure;BME280_temperature;BME280_humidity;BME280_pressure;Samples;Min_cycle;Max_cycle;Signal;HPM_P1;HPM_P2
2022/03/05 00:02:20;;;;;;;12.30;7.32;;;0.10;80.60;;;;;;5013479;28;20494;-69
2022/03/05 00:04:45;;;;;;;12.32;6.68;;;0.10;80.60;;;;;;5011684;28;20048;-70
2022/03/05 00:07:11;;;;;;;12.70;7.50;;;0.10;80.80;;;;;;5022027;28;20029;-69
2022/03/05 00:09:36;;;;;;;12.02;7.22;;;0.10;81.00;;;;;;4994206;28;20049;-69
2022/03/05 00:12:02;;;;;;;12.57;6.90;;;0.10;81.10;;;;;;5012453;28;20022;-69
2022/03/05 00:14:28;;;;;;;11.68;6.82;;;0.10;81.60;;;;;;5011630;28;20038;-69
2022/03/05 00:16:54;;;;;;;12.45;6.72;;;0.10;81.60;;;;;;5018733;28;20057;-69
2022/03/05 00:19:19;;;;;;;10.93;6.35;;;0.10;81.90;;;;;;5023873;28;20548;-69
2022/03/05 00:21:46;;;;;;;15.77;7.50;;;0.10;82.10;;;;;;5028474;28;20033;-69
2022/03/05 00:24:11;;;;;;;11.38;6.88;;;0.10;82.30;;;;;;5025653;28;20033;-70
2022/03/05 00:26:37;;;;;;;16.52;7.55;;;0.10;82.60;;;;;;5018180;28;20030;-69
2022/03/05 00:29:04;;;;;;;13.73;7.18;;;0.20;82.80;;;;;;5010300;28;20458;-69
2022/03/05 00:31:29;;;;;;;13.68;7.13;;;0.10;82.80;;;;;;5019223;28;20034;-69
2022/03/05 00:33:55;;;;;;;11.30;6.68;;;0.10;82.90;;;;;;5011872;28;20021;-70
2022/03/05 00:36:20;;;;;;;12.70;7.05;;;0.10;83.00;;;;;;5026635;28;20476;-69
2022/03/05 00:38:46;;;;;;;13.90;6.55;;;0.10;83.30;;;;;;5010168;28;20037;-69
2022/03/05 00:41:12;;;;;;;14.27;6.30;;;0.10;83.40;;;;;;5011283;28;20040;-69
2022/03/05 00:43:37;;;;;;;12.55;6.82;;;0.00;83.50;;;;;;5010406;28;20022;-69
2022/03/05 00:46:03;;;;;;;10.05;6.00;;;0.00;83.60;;;;;;5021602;28;20049;-70
2022/03/05 00:48:28;;;;;;;13.63;7.10;;;0.00;83.70;;;;;;5028849;28;20037;-69
2022/03/05 00:50:54;;;;;;;11.50;6.47;;;0.00;84.00;;;;;;5018810;28;20022;-69
2022/03/05 00:53:21;;;;;;;12.73;6.35;;;0.00;83.90;;;;;;5023325;28;20731;-69
2022/03/05 00:55:47;;;;;;;13.05;7.40;;;-0.10;83.70;;;;;;5019306;28;20849;-69
2022/03/05 00:58:14;;;;;;;11.75;6.22;;;-0.10;83.90;;;;;;5017565;28;20084;-69
2022/03/05 01:00:41;;;;;;;12.20;6.25;;;-0.10;83.90;;;;;;5000406;28;20021;-69
2022/03/05 01:03:06;;;;;;;14.25;7.10;;;-0.10;84.00;;;;;;5016267;28;20812;-70
2022/03/05 01:05:32;;;;;;;10.70;6.45;;;-0.10;83.90;;;;;;5020946;28;20148;-69
2022/03/05 01:07:58;;;;;;;11.45;6.60;;;-0.20;84.10;;;;;;5017078;28;20025;-69
2022/03/05 01:10:23;;;;;;;10.82;6.38;;;-0.20;84.20;;;;;;5016975;28;20034;-69
2022/03/05 01:12:49;;;;;;;12.70;6.75;;;-0.20;84.20;;;;;;5014717;28;20026;-69
2022/03/05 01:15:15;;;;;;;11.68;6.38;;;-0.30;84.70;;;;;;5010098;28;20394;-69
2022/03/05 01:17:40;;;;;;;13.20;6.63;;;-0.30;84.30;;;;;;4998159;28;20033;-69
2022/03/05 01:20:07;;;;;;;11.73;6.10;;;-0.30;84.50;;;;;;5020658;28;20041;-69
2022/03/05 01:22:33;;;;;;;10.02;6.55;;;-0.30;84.60;;;;;;5019508;28;20041;-69
2022/03/05 01:24:58;;;;;;;15.57;7.05;;;-0.30;84.70;;;;;;4997933;28;20028;-69
2022/03/05 01:27:24;;;;;;;12.75;6.95;;;-0.40;84.70;;;;;;5025597;28;20096;-69
2022/03/05 01:29:50;;;;;;;13.52;7.35;;;-0.40;84.90;;;;;;5022997;28;20057;-69
2022/03/05 01:32:16;;;;;;;12.88;6.72;;;-0.40;85.20;;;;;;5001055;28;20121;-69
2022/03/05 01:34:42;;;;;;;12.38;6.47;;;-0.40;85.10;;;;;;5030279;28;20033;-69
2022/03/05 01:37:07;;;;;;;11.00;6.60;;;-0.50;85.20;;;;;;5026394;28;20068;-69
2022/03/05 01:39:33;;;;;;;13.63;6.85;;;-0.50;85.50;;;;;;5017957;28;20541;-69
2022/03/05 01:42:01;;;;;;;12.43;6.70;;;-0.50;85.70;;;;;;5015327;28;20136;-69
2022/03/05 01:44:27;;;;;;;12.13;6.07;;;-0.50;86.00;;;;;;5003035;28;20149;-69
2022/03/05 01:46:52;;;;;;;16.25;7.63;;;-0.50;86.30;;;;;;5019103;28;20059;-69
2022/03/05 01:49:19;;;;;;;12.80;7.15;;;-0.50;86.60;;;;;;5010176;28;20474;-69
2022/03/05 01:51:45;;;;;;;12.70;7.07;;;-0.50;86.80;;;;;;5010658;28;20128;-69
2022/03/05 01:54:11;;;;;;;14.93;7.05;;;-0.50;86.90;;;;;;5010204;28;20033;-69
2022/03/05 01:56:38;;;;;;;13.35;7.05;;;-0.50;86.90;;;;;;5007542;28;20068;-69
2022/03/05 01:59:05;;;;;;;13.65;6.85;;;-0.60;87.00;;;;;;5014536;28;20026;-69
2022/03/05 02:01:30;;;;;;;12.65;7.50;;;-0.60;86.90;;;;;;5013123;28;20057;-69
2022/03/05 02:03:57;;;;;;;14.27;7.30;;;-0.60;87.00;;;;;;5009849;28;20433;-69
2022/03/05 02:06:23;;;;;;;12.63;6.90;;;-0.60;87.00;;;;;;5024463;28;20083;-69
2022/03/05 02:08:49;;;;;;;12.77;6.90;;;-0.70;87.10;;;;;;5020696;28;20057;-69
2022/03/05 02:11:16;;;;;;;14.60;8.23;;;-0.70;87.30;;;;;;5009751;28;20105;-69
2022/03/05 02:13:42;;;;;;;14.23;6.80;;;-0.70;87.30;;;;;;5004343;28;20070;-69
2022/03/05 02:16:08;;;;;;;13.30;7.00;;;-0.70;87.40;;;;;;5010157;28;20101;-69
2022/03/05 02:18:34;;;;;;;14.30;7.05;;;-0.70;87.50;;;;;;5010170;28;20021;-69
2022/03/05 02:20:59;;;;;;;21.52;7.45;;;-0.80;87.70;;;;;;5009292;28;20049;-69
2022/03/05 02:23:25;;;;;;;14.77;7.35;;;-0.80;87.90;;;;;;4994033;28;20026;-69
2022/03/05 02:25:52;;;;;;;11.93;6.85;;;-0.80;88.10;;;;;;5028778;28;20084;-69
2022/03/05 02:28:19;;;;;;;14.60;7.82;;;-0.80;88.30;;;;;;5018919;28;20022;-69
2022/03/05 02:30:44;;;;;;;17.27;7.45;;;-0.80;88.60;;;;;;5009691;28;20026;-69
2022/03/05 02:33:10;;;;;;;16.85;7.40;;;-0.80;88.70;;;;;;5009795;28;20474;-69
2022/03/05 02:35:35;;;;;;;10.43;6.30;;;-0.80;88.60;;;;;;5017293;28;20036;-69
2022/03/05 02:38:01;;;;;;;15.27;7.45;;;-0.80;88.40;;;;;;5026928;28;20105;-69
2022/03/05 02:40:27;;;;;;;12.77;7.50;;;-0.80;88.40;;;;;;5012736;28;20021;-69
2022/03/05 02:42:52;;;;;;;12.90;7.15;;;-0.80;88.40;;;;;;5019370;28;20100;-69
2022/03/05 02:45:18;;;;;;;14.63;7.38;;;-0.80;88.30;;;;;;5016394;28;20068;-69
2022/03/05 02:47:43;;;;;;;15.23;8.13;;;-0.90;88.40;;;;;;5016758;28;20073;-69
2022/03/05 02:50:09;;;;;;;12.70;6.90;;;-0.90;88.50;;;;;;5012927;28;20041;-69
2022/03/05 02:52:38;;;;;;;12.93;7.53;;;-1.00;88.40;;;;;;5009400;28;20034;-69
2022/03/05 02:55:04;;;;;;;13.32;7.32;;;-1.00;88.80;;;;;;5015832;28;20029;-69
2022/03/05 02:57:30;;;;;;;14.10;7.75;;;-1.10;88.80;;;;;;5008883;28;20167;-69
2022/03/05 02:59:55;;;;;;;13.68;7.13;;;-1.10;89.00;;;;;;5009241;28;20026;-69
2022/03/05 03:02:21;;;;;;;12.00;7.28;;;-1.10;89.00;;;;;;5011176;28;20037;-69
2022/03/05 03:04:47;;;;;;;14.18;7.60;;;-1.10;89.20;;;;;;5024233;28;20101;-69
2022/03/05 03:07:12;;;;;;;12.88;7.63;;;-1.10;89.40;;;;;;5027748;28;20057;-69
2022/03/05 03:09:38;;;;;;;14.55;7.80;;;-1.10;89.60;;;;;;5019415;28;20021;-69
2022/03/05 03:12:04;;;;;;;17.48;7.43;;;-1.10;89.70;;;;;;5027725;28;20025;-69
2022/03/05 03:14:29;;;;;;;14.55;8.05;;;-1.00;89.80;;;;;;5010345;28;20049;-69
2022/03/05 03:16:55;;;;;;;15.50;8.35;;;-1.10;89.80;;;;;;4995268;28;20501;-69
2022/03/05 03:19:20;;;;;;;12.73;7.38;;;-1.00;90.00;;;;;;5023967;28;20029;-69
2022/03/05 03:21:46;;;;;;;14.10;7.47;;;-1.00;89.80;;;;;;5032268;28;20026;-69
2022/03/05 03:24:12;;;;;;;15.85;7.90;;;-1.00;90.00;;;;;;5022161;28;20075;-69
2022/03/05 03:26:37;;;;;;;15.60;7.38;;;-1.00;90.00;;;;;;5026992;28;20034;-69
2022/03/05 03:29:03;;;;;;;13.57;7.38;;;-1.00;90.00;;;;;;5018516;28;20079;-69
2022/03/05 03:31:29;;;;;;;12.23;7.22;;;-1.00;89.90;;;;;;5012654;28;20151;-69
2022/03/05 03:33:54;;;;;;;12.38;7.55;;;-1.00;90.00;;;;;;5023321;28;20033;-69
2022/03/05 03:36:20;;;;;;;13.32;7.78;;;-1.00;90.00;;;;;;5026030;28;20042;-69
2022/03/05 03:38:46;;;;;;;14.55;7.93;;;-0.90;90.20;;;;;;4994497;28;20373;-69
2022/03/05 03:41:12;;;;;;;14.43;7.20;;;-1.00;90.20;;;;;;5012223;28;20552;-69
2022/03/05 03:43:37;;;;;;;12.52;7.57;;;-0.90;90.30;;;;;;5000934;28;20025;-69
2022/03/05 03:46:03;;;;;;;13.82;7.53;;;-0.90;90.40;;;;;;5000492;28;20021;-69
2022/03/05 03:48:29;;;;;;;17.67;8.90;;;-0.90;90.60;;;;;;5020485;28;20084;-70
2022/03/05 03:50:54;;;;;;;14.80;7.28;;;-0.80;90.60;;;;;;5017761;28;20024;-69
2022/03/05 03:53:20;;;;;;;16.23;8.60;;;-0.90;90.50;;;;;;5030835;28;20552;-69
2022/03/05 03:55:45;;;;;;;12.73;7.28;;;-0.90;90.50;;;;;;5020580;28;20049;-69
2022/03/05 03:58:11;;;;;;;16.60;8.43;;;-1.00;90.50;;;;;;4993762;28;20041;-69
2022/03/05 04:00:37;;;;;;;15.48;7.53;;;-1.00;90.70;;;;;;5015682;28;20088;-70
2022/03/05 04:03:02;;;;;;;15.73;7.75;;;-1.00;90.80;;;;;;5018933;28;20026;-69
2022/03/05 04:05:28;;;;;;;15.27;8.15;;;-1.00;90.80;;;;;;5012714;28;20068;-69
2022/03/05 04:10:38;;;;;;;14.25;8.27;;;-1.00;90.90;;;;;;5012791;28;20037;-69
2022/03/05 04:13:04;;;;;;;14.57;7.47;;;-1.00;90.70;;;;;;5021615;28;20389;-69
2022/03/05 04:15:30;;;;;;;13.27;7.60;;;-1.00;90.70;;;;;;5027047;28;20050;-69
2022/03/05 04:17:55;;;;;;;14.50;7.82;;;-1.00;90.80;;;;;;5016393;28;20034;-69
2022/03/05 04:20:21;;;;;;;15.23;7.90;;;-1.00;90.70;;;;;;5017655;28;20026;-69
2022/03/05 04:22:47;;;;;;;18.02;7.82;;;-1.00;90.80;;;;;;5024617;28;20026;-70
2022/03/05 04:25:12;;;;;;;17.27;8.07;;;-1.10;90.70;;;;;;5015156;28;20018;-69
2022/03/05 04:27:38;;;;;;;15.68;7.95;;;-1.10;90.70;;;;;;5015153;28;20486;-69
2022/03/05 04:30:05;;;;;;;13.15;7.88;;;-1.20;90.70;;;;;;5030478;28;20037;-69
2022/03/05 04:32:30;;;;;;;16.10;8.63;;;-1.30;90.80;;;;;;5030812;28;20025;-69
2022/03/05 04:34:56;;;;;;;13.55;7.80;;;-1.30;90.80;;;;;;5012792;28;20033;-69
2022/03/05 04:37:21;;;;;;;16.50;8.20;;;-1.40;90.90;;;;;;5012128;28;20320;-69
2022/03/05 04:39:47;;;;;;;17.02;8.63;;;-1.40;91.10;;;;;;5016545;28;20037;-69
2022/03/05 04:42:13;;;;;;;17.50;8.88;;;-1.40;91.10;;;;;;5011147;28;20573;-69
2022/03/05 04:44:38;;;;;;;17.15;8.85;;;-1.40;91.20;;;;;;5012542;28;20049;-69
2022/03/05 04:47:04;;;;;;;15.95;8.43;;;-1.40;91.30;;;;;;5009732;28;20022;-69
2022/03/05 04:49:30;;;;;;;15.50;8.60;;;-1.40;91.40;;;;;;5022233;28;20028;-69
2022/03/05 04:51:55;;;;;;;13.20;7.95;;;-1.40;91.50;;;;;;5014101;28;20030;-69
2022/03/05 04:54:21;;;;;;;16.08;9.32;;;-1.30;91.60;;;;;;5014627;28;20092;-69
2022/03/05 04:56:47;;;;;;;16.85;8.20;;;-1.30;91.60;;;;;;5028628;28;20121;-70
2022/03/05 04:59:12;;;;;;;17.85;8.88;;;-1.30;91.50;;;;;;5023388;28;20039;-69
2022/03/05 05:01:38;;;;;;;14.25;8.27;;;-1.30;91.60;;;;;;5028226;28;20064;-69
2022/03/05 05:04:04;;;;;;;15.23;8.13;;;-1.20;91.70;;;;;;5015270;28;20478;-69
2022/03/05 05:06:30;;;;;;;14.90;8.35;;;-1.20;91.60;;;;;;4992941;28;20037;-69
2022/03/05 05:08:55;;;;;;;15.73;8.35;;;-1.30;91.50;;;;;;5010648;28;20022;-69
2022/03/05 05:11:21;;;;;;;16.10;7.78;;;-1.30;91.40;;;;;;5013719;28;20113;-69
2022/03/05 05:13:46;;;;;;;18.90;8.25;;;-1.30;91.50;;;;;;5019578;28;20075;-70
2022/03/05 05:16:12;;;;;;;15.52;7.90;;;-1.40;91.60;;;;;;5012312;28;20034;-69
2022/03/05 05:18:37;;;;;;;13.32;7.95;;;-1.40;91.60;;;;;;5019320;28;20033;-70
2022/03/05 05:21:03;;;;;;;17.05;8.35;;;-1.40;91.70;;;;;;5028263;28;20032;-69
2022/03/05 05:23:29;;;;;;;15.02;8.23;;;-1.40;91.80;;;;;;5002987;28;20168;-69
2022/03/05 05:25:55;;;;;;;17.10;8.52;;;-1.40;91.90;;;;;;5013212;28;20013;-69
2022/03/05 05:28:20;;;;;;;17.25;8.50;;;-1.40;92.00;;;;;;5021486;28;20105;-69
2022/03/05 05:30:46;;;;;;;18.30;8.82;;;-1.40;91.80;;;;;;5011420;28;20026;-69
2022/03/05 05:33:12;;;;;;;16.27;8.07;;;-1.40;91.80;;;;;;5013684;28;20040;-69
2022/03/05 05:35:38;;;;;;;15.13;8.15;;;-1.40;91.70;;;;;;5029791;28;20034;-70
2022/03/05 05:38:04;;;;;;;16.95;8.70;;;-1.40;91.60;;;;;;5014698;28;20021;-70
2022/03/05 05:42:57;;;;;;;17.55;8.23;;;-1.50;91.70;;;;;;5029962;28;20046;-72
2022/03/05 05:45:23;;;;;;;13.07;7.72;;;-1.50;91.80;;;;;;5028899;28;20087;-72
2022/03/05 05:47:48;;;;;;;17.23;8.15;;;-1.50;91.80;;;;;;5010748;28;20033;-72
2022/03/05 05:50:14;;;;;;;18.92;8.45;;;-1.60;91.70;;;;;;5015973;28;20033;-71
2022/03/05 05:52:40;;;;;;;17.23;8.35;;;-1.70;91.70;;;;;;5028291;28;20013;-72
2022/03/05 05:55:05;;;;;;;15.85;8.35;;;-1.70;91.80;;;;;;5028858;28;20485;-72
2022/03/05 05:57:31;;;;;;;15.57;8.55;;;-1.90;91.70;;;;;;5028273;28;20034;-72
2022/03/05 05:59:57;;;;;;;16.70;8.77;;;-1.90;91.80;;;;;;5022609;28;20100;-72
2022/03/05 06:02:23;;;;;;;17.42;8.43;;;-2.00;92.00;;;;;;5029653;28;20048;-72
2022/03/05 06:04:49;;;;;;;19.60;8.82;;;-2.00;92.10;;;;;;5029360;28;20116;-72
2022/03/05 06:07:14;;;;;;;18.60;9.23;;;-2.00;92.30;;;;;;5024843;28;20095;-72
2022/03/05 06:09:40;;;;;;;16.00;8.85;;;-1.90;92.30;;;;;;5020259;28;20101;-72
2022/03/05 06:12:06;;;;;;;18.45;9.20;;;-1.80;92.40;;;;;;5028840;28;20021;-72
2022/03/05 06:14:31;;;;;;;16.45;9.00;;;-1.90;92.30;;;;;;5028693;28;20083;-72
2022/03/05 06:16:57;;;;;;;14.80;8.35;;;-1.90;92.30;;;;;;5029110;28;20044;-72
2022/03/05 06:19:22;;;;;;;20.95;8.85;;;-1.90;92.20;;;;;;5027149;28;20120;-72
2022/03/05 06:21:48;;;;;;;18.75;8.98;;;-2.00;92.50;;;;;;5029165;28;20083;-72
2022/03/05 06:24:13;;;;;;;18.73;9.40;;;-2.00;92.30;;;;;;5027882;28;20540;-72
2022/03/05 06:26:39;;;;;;;16.92;8.85;;;-2.00;92.30;;;;;;5026280;28;20048;-72
2022/03/05 06:29:04;;;;;;;22.50;9.30;;;-2.00;92.40;;;;;;5017479;28;20038;-71
2022/03/05 06:31:30;;;;;;;17.55;8.57;;;-2.00;92.60;;;;;;5026189;28;20045;-71
2022/03/05 06:33:56;;;;;;;17.77;9.15;;;-1.90;92.80;;;;;;5029022;28;20052;-71
2022/03/05 06:36:21;;;;;;;18.02;9.07;;;-1.90;92.80;;;;;;5023264;28;20049;-71
2022/03/05 06:38:47;;;;;;;17.67;9.63;;;-1.80;93.00;;;;;;5021721;28;20030;-72
2022/03/05 06:41:13;;;;;;;17.92;8.88;;;-1.70;93.20;;;;;;5026455;28;20520;-71
2022/03/05 06:43:38;;;;;;;14.00;8.25;;;-1.30;93.30;;;;;;5021572;28;20529;-72
2022/03/05 06:46:04;;;;;;;14.32;8.80;;;-0.80;92.90;;;;;;5026187;28;20095;-71
2022/03/05 06:48:29;;;;;;;16.55;8.48;;;-0.40;92.50;;;;;;5026878;28;20048;-72
2022/03/05 06:50:55;;;;;;;15.88;8.25;;;0.10;92.10;;;;;;5027423;28;20018;-72
2022/03/05 06:53:21;;;;;;;16.27;8.35;;;0.30;91.40;;;;;;5029428;28;20094;-72
2022/03/05 06:55:46;;;;;;;16.00;9.02;;;0.50;91.20;;;;;;5032020;28;20025;-72
2022/03/05 06:58:14;;;;;;;16.52;8.38;;;0.90;91.00;;;;;;5022182;28;20068;-72
2022/03/05 07:00:40;;;;;;;14.82;7.90;;;1.20;90.80;;;;;;5031260;28;20025;-72
2022/03/05 07:03:05;;;;;;;12.88;8.20;;;1.50;90.60;;;;;;5030797;28;20036;-73
2022/03/05 07:05:31;;;;;;;14.10;7.82;;;1.70;90.60;;;;;;5032625;28;20029;-73
2022/03/05 07:07:56;;;;;;;15.02;8.38;;;1.70;90.60;;;;;;5030861;28;20025;-72
2022/03/05 07:10:22;;;;;;;14.52;8.35;;;1.90;90.70;;;;;;5031439;28;20484;-73
2022/03/05 07:12:47;;;;;;;15.88;8.25;;;2.30;90.20;;;;;;5031938;28;20037;-72
2022/03/05 07:15:13;;;;;;;12.88;8.05;;;2.60;89.40;;;;;;5032305;28;20032;-72
2022/03/05 07:17:47;;;;;;;15.27;8.93;;;2.80;88.70;;;;;;5022575;28;20025;-72
2022/03/05 07:20:13;;;;;;;15.32;8.23;;;2.70;89.50;;;;;;5028694;28;20029;-73
2022/03/05 07:22:39;;;;;;;15.82;8.27;;;2.60;90.20;;;;;;5032778;28;20030;-72
2022/03/05 07:25:05;;;;;;;18.90;8.73;;;2.80;90.30;;;;;;5032342;28;20034;-72
2022/03/05 07:27:30;;;;;;;17.20;9.57;;;3.20;89.50;;;;;;5028050;28;20029;-73
2022/03/05 07:29:56;;;;;;;14.10;8.40;;;3.60;87.90;;;;;;5031131;28;20033;-72
2022/03/05 07:32:22;;;;;;;13.95;8.52;;;3.90;87.00;;;;;;5030122;28;20029;-72
2022/03/05 07:34:47;;;;;;;13.75;7.78;;;3.80;86.90;;;;;;5030650;28;20021;-72
2022/03/05 07:37:13;;;;;;;13.68;8.02;;;3.80;88.10;;;;;;5029329;28;20031;-72
2022/03/05 07:39:38;;;;;;;18.63;9.00;;;4.20;87.70;;;;;;5031402;28;20033;-73
2022/03/05 07:42:04;;;;;;;14.52;8.80;;;4.60;86.30;;;;;;5028171;28;20037;-72
2022/03/05 07:44:31;;;;;;;15.57;9.05;;;5.00;85.20;;;;;;5027512;28;20524;-72
2022/03/05 07:46:56;;;;;;;14.77;9.32;;;5.50;84.30;;;;;;5031303;28;20025;-72
2022/03/05 07:49:22;;;;;;;14.95;9.25;;;5.70;83.70;;;;;;5031912;28;20488;-72
2022/03/05 07:51:47;;;;;;;14.57;8.75;;;5.80;83.70;;;;;;5032049;28;20489;-72
2022/03/05 07:54:14;;;;;;;14.15;8.60;;;6.10;83.20;;;;;;5032868;28;20461;-72
2022/03/05 07:56:40;;;;;;;15.00;9.55;;;6.40;82.10;;;;;;5030426;28;20025;-72
2022/03/05 07:59:05;;;;;;;15.85;9.32;;;6.60;80.70;;;;;;5031188;28;20401;-72
2022/03/05 08:01:31;;;;;;;15.25;9.55;;;6.90;80.20;;;;;;5031093;28;20029;-73
2022/03/05 08:03:57;;;;;;;14.50;9.32;;;7.00;79.20;;;;;;5031398;28;20033;-72
2022/03/05 08:06:22;;;;;;;16.40;9.43;;;6.90;78.90;;;;;;5031253;28;20087;-73
2022/03/05 08:08:48;;;;;;;15.00;9.55;;;6.90;79.90;;;;;;5026276;28;20029;-72
2022/03/05 08:11:13;;;;;;;14.63;9.40;;;7.00;80.00;;;;;;5025791;28;20022;-72
2022/03/05 08:13:39;;;;;;;16.30;10.10;;;7.10;79.50;;;;;;5029931;28;20057;-72
2022/03/05 08:16:05;;;;;;;14.95;9.77;;;7.10;79.40;;;;;;5029126;28;20089;-72
2022/03/05 08:18:30;;;;;;;14.95;9.30;;;7.00;79.30;;;;;;5028804;28;20116;-72
2022/03/05 08:20:56;;;;;;;14.63;10.13;;;6.90;79.60;;;;;;5014401;28;20026;-72
2022/03/05 08:23:22;;;;;;;16.83;10.00;;;6.80;80.60;;;;;;5011718;28;20084;-72
2022/03/05 08:25:47;;;;;;;18.13;10.27;;;6.60;80.80;;;;;;5032288;28;20033;-72
2022/03/05 08:28:13;;;;;;;16.30;10.70;;;6.40;81.60;;;;;;5031156;28;20025;-72
2022/03/05 08:30:40;;;;;;;16.58;10.75;;;6.30;82.60;;;;;;5030966;28;20037;-72
2022/03/05 08:33:05;;;;;;;18.10;11.10;;;6.30;83.10;;;;;;5032085;28;20017;-73
2022/03/05 08:35:31;;;;;;;18.45;10.98;;;6.30;83.30;;;;;;5025117;28;20076;-72
2022/03/05 08:37:57;;;;;;;19.90;10.75;;;6.30;83.60;;;;;;5009874;28;20053;-72
2022/03/05 08:40:22;;;;;;;17.20;10.35;;;6.20;84.00;;;;;;5011231;28;20026;-72
2022/03/05 08:42:48;;;;;;;20.38;10.77;;;6.20;84.50;;;;;;5016656;28;20034;-72
2022/03/05 08:45:14;;;;;;;17.35;10.20;;;6.30;85.20;;;;;;5031196;28;20022;-72
2022/03/05 08:47:41;;;;;;;18.05;11.07;;;6.30;85.00;;;;;;5034057;28;20074;-72
2022/03/05 08:50:07;;;;;;;18.10;10.38;;;6.40;84.50;;;;;;5039055;28;20710;-72
2022/03/05 08:52:36;;;;;;;16.88;10.65;;;6.40;83.90;;;;;;5012240;28;20026;-72
2022/03/05 08:55:06;;;;;;;19.20;11.05;;;6.40;83.10;;;;;;5024913;28;20029;-72
2022/03/05 08:57:32;;;;;;;16.65;9.98;;;6.40;82.70;;;;;;5029384;28;20112;-72
2022/03/05 08:59:57;;;;;;;19.25;11.05;;;6.40;82.60;;;;;;5029893;28;20137;-72
2022/03/05 09:02:23;;;;;;;18.52;10.77;;;6.40;82.30;;;;;;5030639;28;20029;-72
2022/03/05 09:04:49;;;;;;;16.60;10.45;;;6.40;81.50;;;;;;5029485;28;20059;-72
2022/03/05 09:07:14;;;;;;;20.38;12.05;;;6.40;81.70;;;;;;5030070;28;20021;-72
2022/03/05 09:09:40;;;;;;;17.00;10.60;;;6.30;81.20;;;;;;5031634;28;20025;-71
2022/03/05 09:12:06;;;;;;;20.10;11.27;;;6.20;81.20;;;;;;5030059;28;20026;-72
2022/03/05 09:14:31;;;;;;;17.27;10.23;;;6.20;81.20;;;;;;5031183;28;20216;-71
2022/03/05 09:16:58;;;;;;;21.08;11.18;;;6.20;80.70;;;;;;5030504;28;20032;-71
2022/03/05 09:19:23;;;;;;;19.10;10.55;;;6.20;80.30;;;;;;5039585;28;20025;-71
2022/03/05 09:21:49;;;;;;;16.40;9.93;;;6.10;79.80;;;;;;5022938;28;20104;-71
2022/03/05 09:24:14;;;;;;;16.42;10.07;;;6.00;79.70;;;;;;5030672;28;20037;-71
2022/03/05 09:26:40;;;;;;;17.45;10.50;;;6.00;79.90;;;;;;5031404;28;20053;-71
2022/03/05 09:29:06;;;;;;;18.20;10.88;;;6.10;79.80;;;;;;5029051;28;20025;-71
2022/03/05 09:31:32;;;;;;;17.70;9.40;;;6.10;79.90;;;;;;5031327;28;20069;-71
2022/03/05 09:33:57;;;;;;;15.90;9.02;;;6.10;79.50;;;;;;5030329;28;20035;-71
2022/03/05 09:36:23;;;;;;;15.50;9.35;;;6.10;79.40;;;;;;5030992;28;20032;-71
2022/03/05 09:38:48;;;;;;;15.18;9.25;;;6.10;79.40;;;;;;5028873;28;20052;-71
2022/03/05 09:41:14;;;;;;;15.43;9.68;;;6.20;79.40;;;;;;5030785;28;20370;-71
2022/03/05 09:43:40;;;;;;;13.43;8.23;;;6.30;79.90;;;;;;5023833;28;20030;-71
2022/03/05 09:46:05;;;;;;;14.07;8.25;;;6.50;79.10;;;;;;5024547;28;20017;-71
2022/03/05 09:48:31;;;;;;;13.15;8.50;;;6.60;78.00;;;;;;5029074;28;20021;-71
2022/03/05 09:50:58;;;;;;;13.98;8.35;;;6.60;77.60;;;;;;5029437;28;20017;-71
2022/03/05 09:53:31;;;;;;;13.85;8.18;;;6.70;77.90;;;;;;5026061;28;20374;-71
2022/03/05 09:55:57;;;;;;;12.73;7.97;;;6.70;76.90;;;;;;5029561;28;20045;-71
2022/03/05 09:58:23;;;;;;;12.00;7.85;;;6.70;76.70;;;;;;5027275;28;20021;-71
2022/03/05 10:00:50;;;;;;;12.02;7.72;;;6.60;76.40;;;;;;5029632;28;20037;-71
2022/03/05 10:03:17;;;;;;;12.90;7.35;;;6.60;76.20;;;;;;5029982;28;20030;-71
2022/03/05 10:05:42;;;;;;;14.05;6.85;;;6.60;75.80;;;;;;5028078;28;20507;-71
2022/03/05 10:08:12;;;;;;;10.52;7.30;;;6.70;75.80;;;;;;5023317;28;20105;-71
2022/03/05 10:10:52;;;;;;;12.50;7.28;;;6.70;75.90;;;;;;5027795;28;20152;-71
2022/03/05 10:13:28;;;;;;;12.90;7.60;;;6.80;75.10;;;;;;5029729;28;20025;-73
2022/03/05 10:16:03;;;;;;;11.75;7.20;;;7.00;75.50;;;;;;5018621;28;20025;-72
2022/03/05 10:18:33;;;;;;;14.63;6.60;;;7.10;75.10;;;;;;5028074;28;20021;-73
2022/03/05 10:21:00;;;;;;;9.38;5.50;;;7.10;74.90;;;;;;5026877;28;20026;-73
2022/03/05 10:23:30;;;;;;;7.90;4.55;;;7.20;74.20;;;;;;5019439;28;20029;-73
2022/03/05 10:25:56;;;;;;;7.72;4.88;;;7.20;73.70;;;;;;5038417;28;20017;-72
2022/03/05 10:28:27;;;;;;;7.50;4.93;;;7.10;72.40;;;;;;5030540;28;20478;-72
2022/03/05 10:31:03;;;;;;;6.13;4.10;;;7.00;71.10;;;;;;5034550;28;20079;-71
2022/03/05 10:33:33;;;;;;;7.20;4.85;;;6.80;70.60;;;;;;5032331;28;20454;-73
2022/03/05 10:36:20;;;;;;;7.60;4.75;;;6.80;70.80;;;;;;5033650;28;20017;-72
2022/03/05 10:39:08;;;;;;;8.18;4.68;;;6.80;70.40;;;;;;5027292;28;20063;-72
2022/03/05 10:41:40;;;;;;;6.03;4.32;;;6.90;70.00;;;;;;5022925;28;20033;-71
2022/03/05 10:44:15;;;;;;;5.30;3.90;;;6.90;69.40;;;;;;5031245;28;20036;-70
2022/03/05 10:47:00;;;;;;;5.88;4.05;;;7.00;69.00;;;;;;5027496;28;20029;-71
2022/03/05 10:49:31;;;;;;;6.53;4.07;;;7.00;69.20;;;;;;5031939;28;20100;-71
2022/03/05 10:52:02;;;;;;;6.95;4.82;;;7.00;68.30;;;;;;5031252;28;20026;-72
2022/03/05 10:54:48;;;;;;;10.32;4.50;;;6.90;67.90;;;;;;5034329;28;20036;-73
2022/03/05 10:57:18;;;;;;;6.22;3.72;;;6.70;67.30;;;;;;5030132;28;20040;-72
2022/03/05 10:59:44;;;;;;;4.03;3.30;;;6.50;67.10;;;;;;5029091;28;20025;-73
2022/03/05 11:02:12;;;;;;;5.25;3.35;;;6.40;66.60;;;;;;5029164;28;20078;-72
2022/03/05 11:04:45;;;;;;;5.18;3.80;;;6.20;66.60;;;;;;5033165;28;20025;-72
2022/03/05 11:07:12;;;;;;;7.32;4.07;;;6.10;66.60;;;;;;5027382;28;20025;-73
2022/03/05 11:09:42;;;;;;;6.63;4.45;;;6.00;66.60;;;;;;5033232;28;20044;-72
2022/03/05 11:12:09;;;;;;;6.35;4.35;;;5.90;66.50;;;;;;5033329;28;20125;-72
2022/03/05 11:14:36;;;;;;;5.70;3.72;;;5.70;66.20;;;;;;5031516;28;20021;-73
2022/03/05 11:17:04;;;;;;;7.65;3.80;;;5.60;65.80;;;;;;5030644;28;20405;-73
2022/03/05 11:19:30;;;;;;;5.18;3.40;;;5.50;66.00;;;;;;5033358;28;20029;-73
2022/03/05 11:21:57;;;;;;;5.28;3.53;;;5.40;66.20;;;;;;5033139;28;20041;-72
2022/03/05 11:24:24;;;;;;;5.63;3.60;;;5.50;66.50;;;;;;5033656;28;20112;-76
2022/03/05 11:26:52;;;;;;;4.95;3.60;;;5.60;66.20;;;;;;5031950;28;20029;-72
2022/03/05 11:29:24;;;;;;;6.53;3.90;;;5.80;65.80;;;;;;5032241;28;20017;-72
2022/03/05 11:31:50;;;;;;;;;;;5.90;65.10;;;;;;5033361;28;20030;-72
2022/03/05 11:34:18;;;;;;;5.72;4.10;;;5.80;65.70;;;;;;5032503;28;19968;-70
2022/03/05 11:36:46;;;;;;;6.20;3.88;;;5.90;65.50;;;;;;5027459;28;20091;-73
2022/03/05 11:39:17;;;;;;;5.22;3.55;;;6.00;65.50;;;;;;5024364;28;20029;-71
2022/03/05 11:41:53;;;;;;;6.93;3.60;;;6.10;65.30;;;;;;5042938;23;20041;-68
2022/03/05 11:44:20;;;;;;;4.53;3.20;;;6.20;64.70;;;;;;5032354;28;20060;-69
2022/03/05 11:46:46;;;;;;;4.30;3.28;;;6.30;64.90;;;;;;5012177;28;20030;-67
2022/03/05 11:49:14;;;;;;;4.68;3.47;;;6.30;64.70;;;;;;5031282;28;20108;-69
2022/03/05 11:51:57;;;;;;;5.60;3.35;;;6.40;64.40;;;;;;5027466;28;20017;-69
2022/03/05 11:54:24;;;;;;;5.55;3.67;;;6.50;63.90;;;;;;5032028;28;20061;-69
2022/03/05 11:57:03;;;;;;;6.60;3.58;;;6.60;63.90;;;;;;5031947;28;20029;-69
2022/03/05 11:59:33;;;;;;;5.05;3.55;;;6.70;63.60;;;;;;5030814;28;20025;-70
2022/03/05 12:01:58;;;;;;;5.45;3.50;;;6.70;63.90;;;;;;5030820;28;20036;-67
2022/03/05 12:04:29;;;;;;;4.25;3.40;;;6.80;63.90;;;;;;5032916;28;20034;-67
2022/03/05 12:07:03;;;;;;;5.25;3.67;;;6.90;63.20;;;;;;5031174;28;20018;-67
2022/03/05 12:09:42;;;;;;;4.10;3.40;;;6.90;62.80;;;;;;5032432;28;20076;-70
2022/03/05 12:12:17;;;;;;;5.82;3.72;;;7.00;62.40;;;;;;5031807;28;20519;-70
2022/03/05 12:14:58;;;;;;;6.32;3.60;;;7.00;62.30;;;;;;5032287;28;20041;-67
2022/03/05 12:17:24;;;;;;;6.13;4.10;;;7.00;62.30;;;;;;5030485;28;20033;-67
2022/03/05 12:19:50;;;;;;;8.00;4.28;;;7.10;62.60;;;;;;5029913;28;20120;-70
2022/03/05 12:22:16;;;;;;;5.95;4.20;;;7.10;62.20;;;;;;5028709;28;20112;-70
2022/03/05 12:24:42;;;;;;;8.60;4.10;;;7.20;61.80;;;;;;5016153;28;20472;-67
2022/03/05 12:27:15;;;;;;;6.97;4.53;;;7.20;62.10;;;;;;5025782;28;20028;-68
2022/03/05 12:29:49;;;;;;;7.22;4.50;;;7.30;61.90;;;;;;5030246;28;20064;-68
2022/03/05 12:32:15;;;;;;;6.25;4.22;;;7.30;61.60;;;;;;5029562;28;20444;-69
2022/03/05 12:34:41;;;;;;;6.50;4.25;;;7.40;61.60;;;;;;5028744;28;20490;-69
2022/03/05 12:37:08;;;;;;;7.93;4.45;;;7.40;61.50;;;;;;5027464;28;20026;-70
2022/03/05 12:39:34;;;;;;;8.40;4.78;;;7.40;61.30;;;;;;5027388;28;20029;-68
2022/03/05 12:42:00;;;;;;;6.15;4.30;;;7.40;61.30;;;;;;5029189;28;20567;-68
2022/03/05 12:44:37;;;;;;;7.40;4.82;;;7.50;61.30;;;;;;5031949;28;20034;-68
2022/03/05 12:47:03;;;;;;;5.60;4.45;;;7.60;60.90;;;;;;5030398;28;20026;-68